Time;durP1;ratioP1;P1;durP2;ratioP2;P2;SDS_P1;SDS_P2;PMS_P1;PMS_P2;Temp;Humidity;BMP_temperature;BMP_pressure;BME280_temperature;BME280_humidity;BME280_pressure;Samples;Min_cycle;Max_cycle;Signal;HPM_P1;HPM_P2
2023/01/01 00:00:05;;;;;;;12.25;3.88;;;14.80;64.30;;;;;;5000897;28;20043;-81
2023/01/01 00:02:31;;;;;;;11.73;3.72;;;14.80;64.20;;;;;;4981862;28;20046;-81
2023/01/01 00:04:57;;;;;;;11.93;3.80;;;14.80;64.00;;;;;;4992857;28;20041;-77
2023/01/01 00:07:22;;;;;;;10.20;3.78;;;14.80;63.70;;;;;;4986920;28;20043;-83
2023/01/01 00:12:32;;;;;;;14.47;4.60;;;14.80;64.00;;;;;;4994439;28;20061;-80
2023/01/01 00:14:58;;;;;;;16.88;7.05;;;14.90;63.90;;;;;;4992265;28;20053;-77
2023/01/01 00:17:23;;;;;;;19.88;9.02;;;14.90;63.90;;;;;;4991024;28;20122;-80
2023/01/01 00:19:49;;;;;;;16.45;9.30;;;14.90;63.70;;;;;;4997299;28;20032;-83
2023/01/01 00:22:15;;;;;;;20.25;11.27;;;14.90;63.50;;;;;;4990108;28;20383;-81
2023/01/01 00:24:40;;;;;;;14.05;7.10;;;14.90;63.60;;;;;;4999445;28;20353;-82
2023/01/01 00:27:06;;;;;;;11.80;4.35;;;14.90;63.50;;;;;;4995002;28;20071;-82
2023/01/01 00:29:31;;;;;;;11.32;4.72;;;14.90;64.00;;;;;;5004621;28;20056;-86
2023/01/01 00:31:57;;;;;;;11.10;4.55;;;14.90;64.10;;;;;;4996733;28;20243;-80
2023/01/01 00:34:23;;;;;;;14.63;4.40;;;14.80;64.30;;;;;;4995872;28;20037;-83
2023/01/01 00:36:48;;;;;;;12.57;4.82;;;14.80;64.80;;;;;;4995010;28;20044;-80
2023/01/01 00:39:14;;;;;;;13.65;5.10;;;14.80;65.00;;;;;;4999983;28;20030;-85
2023/01/01 00:41:39;;;;;;;12.02;3.70;;;14.70;65.20;;;;;;4996044;28;20442;-78
2023/01/01 00:44:05;;;;;;;9.90;4.15;;;14.70;65.40;;;;;;5000873;28;20042;-77
2023/01/01 00:46:31;;;;;;;14.60;4.25;;;14.60;65.40;;;;;;4986967;28;20471;-83
2023/01/01 00:48:57;;;;;;;10.93;3.75;;;14.70;65.30;;;;;;4985358;28;20093;-85
2023/01/01 00:51:22;;;;;;;8.73;3.92;;;14.60;65.50;;;;;;4988121;28;20564;-81
2023/01/01 00:53:48;;;;;;;8.07;3.35;;;14.60;65.40;;;;;;4988699;28;20026;-82
2023/01/01 00:56:13;;;;;;;11.98;3.67;;;14.60;65.80;;;;;;4989688;28;20026;-80
2023/01/01 00:58:39;;;;;;;11.95;3.65;;;14.60;65.50;;;;;;4993091;28;20469;-83
2023/01/01 01:01:05;;;;;;;14.13;3.85;;;14.60;65.20;;;;;;4992550;28;20488;-82
2023/01/01 01:03:30;;;;;;;12.07;3.83;;;14.60;65.30;;;;;;4997362;28;20111;-86
2023/01/01 01:06:02;;;;;;;11.05;3.40;;;14.60;65.00;;;;;;4990654;28;20117;-80
2023/01/01 01:08:30;;;;;;;13.95;3.70;;;14.50;65.30;;;;;;4993241;28;20072;-81
2023/01/01 01:11:04;;;;;;;10.57;3.55;;;14.50;65.20;;;;;;4995941;28;20037;-84
2023/01/01 01:13:30;;;;;;;11.52;3.55;;;14.50;65.00;;;;;;4990424;28;20128;-83
2023/01/01 01:15:56;;;;;;;11.48;3.67;;;14.60;65.40;;;;;;4997143;28;20398;-79
2023/01/01 01:18:21;;;;;;;9.32;3.20;;;14.60;65.40;;;;;;4996263;28;20518;-83
2023/01/01 01:20:51;;;;;;;11.18;3.45;;;14.50;65.40;;;;;;4998807;28;20045;-75
2023/01/01 01:23:17;;;;;;;12.65;4.28;;;14.50;65.60;;;;;;5002896;28;20483;-75
2023/01/01 01:25:44;;;;;;;10.38;3.85;;;14.50;65.90;;;;;;5014164;28;20370;-81
2023/01/01 01:28:09;;;;;;;10.98;3.33;;;14.50;65.70;;;;;;5000485;28;20026;-81
2023/01/01 01:30:40;;;;;;;8.15;3.10;;;14.60;65.80;;;;;;5007679;28;20033;-73
2023/01/01 01:33:05;;;;;;;12.23;3.47;;;14.60;65.60;;;;;;5007955;28;20408;-81
2023/01/01 01:35:32;;;;;;;12.02;3.28;;;14.60;65.50;;;;;;5003305;28;20018;-79
2023/01/01 01:37:58;;;;;;;8.93;3.17;;;14.60;65.60;;;;;;4999281;28;20075;-82
2023/01/01 01:40:23;;;;;;;9.00;3.10;;;14.70;65.30;;;;;;4993787;28;20026;-78
2023/01/01 01:42:50;;;;;;;11.85;3.40;;;14.70;65.60;;;;;;4997017;28;20467;-81
2023/01/01 01:45:16;;;;;;;13.18;3.03;;;14.70;65.60;;;;;;5006508;28;20437;-79
2023/01/01 01:47:44;;;;;;;8.15;3.03;;;14.60;66.00;;;;;;4999736;28;20715;-78
2023/01/01 01:50:15;;;;;;;8.63;3.03;;;14.60;66.10;;;;;;5001411;28;20030;-79
2023/01/01 01:53:11;;;;;;;11.23;3.10;;;14.60;66.40;;;;;;5004512;28;20553;-78
2023/01/01 01:55:47;;;;;;;12.93;3.13;;;14.60;66.60;;;;;;5010563;28;20103;-75
2023/01/01 01:58:14;;;;;;;11.27;3.10;;;14.60;66.70;;;;;;5000266;28;20037;-78
2023/01/01 02:00:40;;;;;;;11.60;3.15;;;14.60;66.90;;;;;;4997674;28;20122;-76
2023/01/01 02:03:08;;;;;;;11.80;3.65;;;14.60;67.10;;;;;;4998395;28;20030;-83
2023/01/01 02:05:36;;;;;;;7.90;2.70;;;14.60;67.20;;;;;;5004413;28;20040;-77
2023/01/01 02:08:03;;;;;;;11.65;3.40;;;14.60;67.40;;;;;;4996767;28;20473;-78
2023/01/01 02:10:29;;;;;;;13.45;3.33;;;14.60;67.50;;;;;;5002559;28;20067;-81
2023/01/01 02:12:55;;;;;;;10.70;3.55;;;14.60;67.50;;;;;;5004485;28;20393;-77
2023/01/01 02:15:24;;;;;;;9.88;3.33;;;14.60;67.50;;;;;;5006641;28;20041;-82
2023/01/01 02:18:13;;;;;;;12.55;3.55;;;14.60;67.60;;;;;;4996785;28;20054;-79
2023/01/01 02:21:03;;;;;;;10.65;3.10;;;14.50;67.60;;;;;;5003793;28;20030;-76
2023/01/01 02:23:29;;;;;;;9.15;3.00;;;14.50;67.50;;;;;;5007403;28;20029;-76
2023/01/01 02:26:37;;;;;;;9.90;2.92;;;14.50;67.70;;;;;;5008814;28;20038;-75
2023/01/01 02:29:16;;;;;;;10.13;3.15;;;14.50;67.80;;;;;;5012065;28;20037;-78
2023/01/01 02:31:53;;;;;;;10.77;2.80;;;14.50;67.70;;;;;;5010424;28;20041;-75
2023/01/01 02:34:22;;;;;;;10.60;3.03;;;14.50;67.80;;;;;;5019143;28;20482;-77
2023/01/01 02:36:51;;;;;;;8.60;3.40;;;14.50;67.70;;;;;;4999892;28;20038;-85
2023/01/01 02:39:20;;;;;;;10.85;3.45;;;14.50;68.00;;;;;;5007976;28;20018;-76
2023/01/01 02:41:49;;;;;;;9.50;3.42;;;14.50;67.90;;;;;;5003853;28;20038;-77
2023/01/01 02:44:17;;;;;;;11.90;3.22;;;14.50;67.90;;;;;;5012775;28;20029;-79
2023/01/01 02:46:43;;;;;;;9.43;3.28;;;14.50;67.70;;;;;;5013386;28;20120;-81
2023/01/01 02:49:10;;;;;;;10.50;3.17;;;14.50;68.00;;;;;;5003757;28;20080;-76
2023/01/01 02:52:02;;;;;;;13.75;3.60;;;14.40;68.10;;;;;;5017388;28;20124;-83
2023/01/01 02:54:42;;;;;;;9.05;3.28;;;14.40;68.20;;;;;;5016378;28;20597;-78
2023/01/01 02:57:36;;;;;;;11.60;3.00;;;14.40;68.20;;;;;;5004709;28;20099;-81
2023/01/01 03:00:26;;;;;;;9.35;3.45;;;14.40;68.20;;;;;;5014318;28;20096;-81
2023/01/01 03:03:01;;;;;;;9.82;2.58;;;14.40;68.30;;;;;;5011637;28;20041;-77
2023/01/01 03:08:45;;;;;;;9.82;3.08;;;14.30;68.70;;;;;;5014830;28;19928;-76
2023/01/01 03:11:14;;;;;;;13.48;3.70;;;14.30;68.90;;;;;;5010192;28;20041;-79
2023/01/01 03:13:58;;;;;;;14.90;3.97;;;14.30;68.80;;;;;;5016091;28;20037;-80
2023/01/01 03:16:38;;;;;;;9.73;3.35;;;14.30;69.00;;;;;;5008032;28;20046;-80
2023/01/01 03:19:10;;;;;;;14.73;4.18;;;14.30;69.20;;;;;;5007967;28;20119;-76
2023/01/01 03:22:08;;;;;;;13.05;3.40;;;14.30;69.20;;;;;;5008959;28;20116;-75
2023/01/01 03:24:38;;;;;;;16.20;3.90;;;14.30;69.20;;;;;;5014542;28;20068;-78
2023/01/01 03:27:17;;;;;;;11.32;3.00;;;14.30;69.40;;;;;;5003746;28;20115;-77
2023/01/01 03:29:45;;;;;;;13.18;3.92;;;14.30;69.50;;;;;;5006471;28;20506;-76
2023/01/01 03:32:14;;;;;;;9.10;3.40;;;14.30;69.70;;;;;;5011753;28;20030;-75
2023/01/01 03:34:46;;;;;;;9.07;3.10;;;14.30;69.80;;;;;;5013430;28;20025;-82
2023/01/01 03:37:20;;;;;;;11.25;3.58;;;14.30;69.90;;;;;;5014445;28;20041;-80
2023/01/01 03:39:51;;;;;;;10.45;3.35;;;14.30;69.90;;;;;;5020045;28;20524;-76
2023/01/01 03:42:40;;;;;;;16.67;3.35;;;14.30;70.10;;;;;;5007461;28;20509;-76
2023/01/01 03:45:12;;;;;;;13.30;3.50;;;14.40;70.10;;;;;;5011852;28;20018;-79
2023/01/01 03:47:38;;;;;;;13.02;3.47;;;14.40;70.20;;;;;;4997966;28;20038;-75
2023/01/01 03:50:04;;;;;;;12.13;3.58;;;14.40;70.30;;;;;;4998755;28;20032;-79
2023/01/01 03:52:50;;;;;;;12.38;3.70;;;14.40;70.20;;;;;;5007822;28;20114;-82
2023/01/01 03:55:24;;;;;;;13.88;3.63;;;14.40;70.40;;;;;;5005713;28;20097;-76
2023/01/01 03:58:01;;;;;;;13.48;3.22;;;14.40;70.50;;;;;;5001365;28;20026;-82
2023/01/01 04:00:37;;;;;;;12.70;2.88;;;14.40;70.80;;;;;;5009339;28;20087;-81
2023/01/01 04:03:19;;;;;;;9.18;3.35;;;14.40;70.70;;;;;;5002373;28;20030;-81
2023/01/01 04:05:45;;;;;;;9.48;2.88;;;14.40;71.00;;;;;;5007837;28;20030;-85
2023/01/01 04:08:13;;;;;;;11.32;3.00;;;14.40;71.20;;;;;;5007952;28;20462;-78
2023/01/01 04:10:43;;;;;;;8.73;2.80;;;14.30;71.60;;;;;;4999812;28;20039;-81
2023/01/01 04:13:09;;;;;;;8.85;2.33;;;14.20;73.00;;;;;;5006725;28;20025;-80
2023/01/01 04:15:35;;;;;;;7.68;2.55;;;14.10;73.90;;;;;;5002790;28;20382;-75
2023/01/01 04:18:01;;;;;;;10.20;2.00;;;13.80;76.20;;;;;;5006623;28;20393;-77
2023/01/01 04:20:27;;;;;;;6.95;1.63;;;13.50;77.80;;;;;;5003649;28;20270;-77
2023/01/01 04:22:57;;;;;;;10.23;2.10;;;13.30;78.80;;;;;;5005308;28;20025;-78
2023/01/01 04:25:23;;;;;;;8.57;1.70;;;13.20;79.50;;;;;;5003274;28;20505;-79
2023/01/01 04:27:49;;;;;;;7.68;1.63;;;13.10;79.80;;;;;;5003373;28;20030;-78
2023/01/01 04:30:15;;;;;;;8.00;2.50;;;13.00;80.20;;;;;;5013443;28;20429;-75
2023/01/01 04:32:41;;;;;;;6.65;1.85;;;12.90;79.90;;;;;;5001003;28;20401;-82
2023/01/01 04:35:08;;;;;;;6.63;1.48;;;12.80;79.40;;;;;;5012344;28;20022;-75
2023/01/01 04:37:37;;;;;;;8.80;1.70;;;12.80;78.80;;;;;;5006937;28;20049;-75
2023/01/01 04:40:04;;;;;;;5.60;1.30;;;12.60;78.70;;;;;;5017808;28;20021;-86
2023/01/01 04:42:29;;;;;;;5.82;1.35;;;12.70;78.30;;;;;;5013993;28;20033;-78
2023/01/01 04:44:55;;;;;;;7.85;1.73;;;12.70;77.30;;;;;;5019034;28;20017;-81
2023/01/01 04:47:21;;;;;;;8.95;2.17;;;12.70;76.90;;;;;;4999953;28;20458;-80
2023/01/01 04:49:46;;;;;;;7.75;1.90;;;12.70;76.90;;;;;;5009291;28;20046;-75
2023/01/01 04:52:12;;;;;;;6.47;1.90;;;12.70;77.50;;;;;;5017170;28;20037;-78
2023/01/01 04:54:38;;;;;;;10.00;2.40;;;12.70;79.50;;;;;;5003429;28;20019;-80
2023/01/01 04:57:03;;;;;;;9.98;1.85;;;12.50;82.20;;;;;;5010075;28;20038;-77
2023/01/01 04:59:29;;;;;;;9.35;1.65;;;12.40;83.40;;;;;;5020204;28;20100;-79
2023/01/01 05:01:56;;;;;;;9.70;2.40;;;12.30;84.00;;;;;;5001025;28;20390;-79
2023/01/01 05:04:21;;;;;;;8.50;2.05;;;12.20;83.90;;;;;;5005008;28;20022;-78
2023/01/01 05:06:47;;;;;;;11.38;2.70;;;12.20;84.00;;;;;;5009251;28;20390;-81
2023/01/01 05:09:13;;;;;;;10.23;2.08;;;12.20;84.30;;;;;;5004929;28;20379;-76
2023/01/01 05:11:39;;;;;;;10.20;2.83;;;12.20;83.90;;;;;;5001862;28;20394;-76
2023/01/01 05:14:05;;;;;;;8.23;2.50;;;12.30;83.90;;;;;;5021809;28;20443;-79
2023/01/01 05:16:34;;;;;;;9.25;2.60;;;12.30;84.00;;;;;;5008701;28;20445;-78
2023/01/01 05:19:00;;;;;;;7.82;2.20;;;12.30;83.90;;;;;;5008485;28;20018;-75
2023/01/01 05:21:28;;;;;;;9.63;2.33;;;12.30;83.50;;;;;;5003471;28;20034;-77
2023/01/01 05:23:55;;;;;;;13.40;2.83;;;12.30;84.00;;;;;;5018202;28;20036;-76
2023/01/01 05:26:23;;;;;;;8.50;2.42;;;12.40;83.80;;;;;;4998864;28;20103;-77
2023/01/01 05:28:49;;;;;;;10.00;2.30;;;12.40;83.60;;;;;;5014968;28;20052;-82
2023/01/01 05:31:18;;;;;;;8.77;2.30;;;12.40;83.30;;;;;;5009825;28;20276;-79
2023/01/01 05:33:44;;;;;;;7.45;1.90;;;12.40;83.20;;;;;;5008765;28;20029;-76
2023/01/01 05:36:25;;;;;;;7.57;2.08;;;12.40;83.00;;;;;;5011029;28;20384;-80
2023/01/01 05:38:52;;;;;;;9.48;2.85;;;12.40;82.40;;;;;;5002449;28;20451;-82
2023/01/01 05:41:19;;;;;;;9.32;1.98;;;12.40;82.10;;;;;;4997719;28;20117;-76
2023/01/01 05:43:45;;;;;;;7.68;1.75;;;12.40;82.20;;;;;;4993442;28;20034;-86
2023/01/01 05:46:13;;;;;;;11.80;2.85;;;12.50;81.30;;;;;;5011789;28;20037;-80
2023/01/01 05:48:39;;;;;;;9.55;2.40;;;12.50;81.50;;;;;;5008686;28;20093;-83
2023/01/01 05:51:07;;;;;;;8.70;2.20;;;12.50;81.30;;;;;;5017773;28;20355;-76
2023/01/01 05:53:33;;;;;;;11.27;2.33;;;12.40;81.40;;;;;;5014097;28;20037;-80
2023/01/01 05:55:59;;;;;;;12.77;2.45;;;12.40;81.10;;;;;;5017247;28;20045;-77
2023/01/01 05:58:26;;;;;;;13.20;2.15;;;12.40;81.20;;;;;;5013801;28;20036;-75
2023/01/01 06:00:52;;;;;;;9.80;2.17;;;12.40;81.20;;;;;;5013373;28;20095;-75
2023/01/01 06:03:18;;;;;;;10.48;2.35;;;12.40;81.10;;;;;;5010868;28;20030;-75
2023/01/01 06:05:44;;;;;;;10.52;2.70;;;12.40;81.10;;;;;;5006775;28;20034;-84
2023/01/01 06:08:10;;;;;;;12.80;2.33;;;12.40;81.20;;;;;;5015286;28;20275;-80
2023/01/01 06:10:36;;;;;;;13.20;2.53;;;12.40;81.80;;;;;;5013116;28;20049;-78
2023/01/01 06:13:01;;;;;;;11.60;2.47;;;12.40;82.40;;;;;;5004878;28;20030;-83
2023/01/01 06:15:27;;;;;;;13.52;2.47;;;12.30;83.00;;;;;;5012295;28;20044;-76
2023/01/01 06:17:53;;;;;;;9.82;1.80;;;12.30;83.20;;;;;;5002482;28;20106;-75
2023/01/01 06:20:19;;;;;;;10.38;2.60;;;12.20;83.80;;;;;;5011558;28;20032;-76
2023/01/01 06:22:45;;;;;;;10.82;2.58;;;12.10;84.20;;;;;;4995039;28;20184;-85
2023/01/01 06:25:11;;;;;;;11.82;2.65;;;12.10;84.30;;;;;;5021096;28;20491;-86
2023/01/01 06:27:37;;;;;;;10.18;1.90;;;12.10;84.60;;;;;;5006777;28;20034;-76
2023/01/01 06:30:04;;;;;;;14.10;2.50;;;12.10;84.50;;;;;;5011360;28;20082;-80
2023/01/01 06:32:30;;;;;;;10.60;2.25;;;12.00;84.50;;;;;;5007572;28;20026;-78
2023/01/01 06:34:56;;;;;;;12.18;2.08;;;12.00;84.50;;;;;;5017650;28;20330;-76
2023/01/01 06:37:22;;;;;;;11.75;2.65;;;12.00;84.70;;;;;;5011164;28;20077;-76
2023/01/01 06:39:47;;;;;;;9.75;1.98;;;12.00;84.70;;;;;;5011092;28;20024;-76
2023/01/01 06:42:13;;;;;;;9.98;2.53;;;12.00;84.70;;;;;;5006561;28;20038;-81
2023/01/01 06:44:39;;;;;;;10.50;2.03;;;12.00;84.70;;;;;;5019773;28;20086;-85
2023/01/01 06:47:05;;;;;;;11.75;2.10;;;12.00;84.60;;;;;;4998346;28;20042;-79
2023/01/01 06:49:31;;;;;;;12.15;3.35;;;12.00;84.60;;;;;;5010815;28;20497;-75
2023/01/01 06:51:56;;;;;;;13.38;2.95;;;12.00;84.80;;;;;;5003088;28;20109;-78
2023/01/01 06:54:22;;;;;;;13.57;2.60;;;12.00;85.10;;;;;;5016163;28;20028;-79
2023/01/01 06:56:48;;;;;;;11.35;2.70;;;12.00;85.20;;;;;;4996649;28;20046;-80
2023/01/01 06:59:15;;;;;;;10.73;2.85;;;12.00;85.70;;;;;;5017337;28;20430;-78
2023/01/01 07:01:41;;;;;;;14.05;3.05;;;12.00;85.80;;;;;;5011158;28;20068;-76
2023/01/01 07:04:10;;;;;;;12.30;2.35;;;12.00;86.20;;;;;;5010817;28;20025;-79
2023/01/01 07:06:37;;;;;;;13.05;3.05;;;12.00;86.60;;;;;;4999260;28;20245;-77
2023/01/01 07:09:04;;;;;;;12.00;2.75;;;12.10;87.10;;;;;;5010763;28;20055;-75
2023/01/01 07:11:31;;;;;;;14.38;3.15;;;12.10;87.60;;;;;;5010124;28;20579;-80
2023/01/01 07:13:57;;;;;;;15.68;3.50;;;12.10;88.10;;;;;;5009597;28;20395;-84
2023/01/01 07:16:23;;;;;;;13.20;3.78;;;12.10;88.20;;;;;;5007515;28;20580;-75
2023/01/01 07:18:49;;;;;;;15.48;3.30;;;12.10;88.50;;;;;;5007692;28;20169;-86
2023/01/01 07:21:42;;;;;;;16.60;3.63;;;12.10;88.70;;;;;;5013253;28;20045;-80
2023/01/01 07:24:10;;;;;;;12.05;3.33;;;12.10;89.00;;;;;;5010919;28;20550;-83
2023/01/01 07:26:35;;;;;;;13.32;3.58;;;12.10;89.10;;;;;;5014083;28;20572;-76
2023/01/01 07:29:01;;;;;;;14.63;3.47;;;12.10;89.10;;;;;;5010048;28;20031;-82
2023/01/01 07:31:26;;;;;;;17.50;3.70;;;12.10;89.10;;;;;;5010483;28;20049;-83
2023/01/01 07:33:52;;;;;;;17.33;4.80;;;12.10;89.00;;;;;;5001171;28;20077;-76
2023/01/01 07:36:18;;;;;;;15.45;4.47;;;12.10;88.80;;;;;;5002221;28;20042;-77
2023/01/01 07:38:43;;;;;;;16.75;4.35;;;12.10;88.60;;;;;;5003581;28;20379;-79
2023/01/01 07:41:09;;;;;;;12.82;3.70;;;12.10;88.40;;;;;;4997966;28;20066;-84
2023/01/01 07:43:35;;;;;;;18.42;3.70;;;12.10;88.20;;;;;;5001170;28;20036;-80
2023/01/01 07:46:01;;;;;;;14.88;3.45;;;12.10;88.10;;;;;;5012106;28;20067;-76
2023/01/01 07:48:27;;;;;;;14.02;3.70;;;12.10;88.00;;;;;;4999301;28;20038;-77
2023/01/01 07:50:53;;;;;;;21.05;4.90;;;12.10;88.00;;;;;;5018427;28;20187;-77
2023/01/01 07:53:18;;;;;;;11.02;3.67;;;12.10;87.80;;;;;;5011240;28;20129;-77
2023/01/01 07:55:44;;;;;;;13.52;4.63;;;12.10;87.80;;;;;;5006145;28;20032;-81
2023/01/01 07:58:11;;;;;;;14.52;4.70;;;12.10;87.70;;;;;;5010835;28;20030;-79
2023/01/01 08:00:37;;;;;;;12.23;4.22;;;12.10;87.60;;;;;;5006042;28;20035;-75
2023/01/01 08:03:03;;;;;;;12.38;4.30;;;12.10;87.50;;;;;;4999987;28;20072;-82
2023/01/01 08:05:28;;;;;;;16.75;4.45;;;12.00;87.50;;;;;;4995290;28;20584;-79
2023/01/01 08:07:54;;;;;;;11.30;3.90;;;12.00;87.50;;;;;;5013428;28;20037;-78
2023/01/01 08:10:21;;;;;;;14.45;4.07;;;12.10;87.30;;;;;;5000931;28;20061;-78
2023/01/01 08:12:47;;;;;;;19.13;5.10;;;12.00;87.20;;;;;;5018417;28;20033;-77
2023/01/01 08:15:13;;;;;;;16.48;4.38;;;12.10;87.20;;;;;;5016527;28;20505;-79
2023/01/01 08:17:39;;;;;;;17.25;4.85;;;12.10;87.10;;;;;;5002411;28;20048;-78
2023/01/01 08:20:06;;;;;;;14.40;4.43;;;12.10;87.00;;;;;;5015069;28;20108;-76
2023/01/01 08:22:32;;;;;;;12.02;3.70;;;12.10;86.90;;;;;;5021350;28;20037;-85
2023/01/01 08:24:57;;;;;;;17.05;4.97;;;12.10;86.90;;;;;;5016983;28;20418;-76
2023/01/01 08:27:23;;;;;;;13.25;4.10;;;12.10;86.60;;;;;;5016615;28;20478;-80
2023/01/01 08:29:49;;;;;;;12.82;3.90;;;12.10;86.40;;;;;;5013364;28;20695;-79
2023/01/01 08:32:14;;;;;;;18.77;4.30;;;12.10;86.50;;;;;;5014468;28;20124;-75
2023/01/01 08:34:40;;;;;;;16.33;4.60;;;12.10;86.60;;;;;;5017661;28;20052;-80
2023/01/01 08:37:12;;;;;;;12.73;3.90;;;12.20;86.40;;;;;;5014410;28;20232;-77
2023/01/01 08:39:38;;;;;;;16.40;4.65;;;12.20;86.40;;;;;;5014796;28;20029;-80
2023/01/01 08:42:03;;;;;;;16.10;4.45;;;12.20;86.30;;;;;;5013135;28;20034;-85
2023/01/01 08:44:29;;;;;;;15.82;5.10;;;12.20;86.40;;;;;;5007799;28;20037;-76
2023/01/01 08:46:55;;;;;;;12.98;3.90;;;12.20;86.20;;;;;;4999439;28;20096;-79
2023/01/01 08:49:20;;;;;;;14.25;4.53;;;12.30;86.10;;;;;;5015358;28;20025;-84
2023/01/01 08:51:46;;;;;;;17.00;4.65;;;12.30;86.10;;;;;;5000385;28;20405;-77
2023/01/01 08:54:12;;;;;;;14.85;4.13;;;12.30;86.00;;;;;;5007189;28;20030;-76
2023/01/01 08:56:37;;;;;;;13.55;3.70;;;12.30;86.00;;;;;;5015038;28;20049;-77
2023/01/01 08:59:04;;;;;;;16.00;4.93;;;12.30;85.80;;;;;;5009188;28;20029;-82
2023/01/01 09:01:30;;;;;;;14.38;4.82;;;12.40;85.80;;;;;;5004306;28;20034;-82
2023/01/01 09:03:55;;;;;;;13.23;3.90;;;12.30;85.80;;;;;;5014827;28;20022;-77
2023/01/01 09:06:21;;;;;;;14.13;4.50;;;12.40;85.70;;;;;;5005157;28;20038;-82
2023/01/01 09:08:47;;;;;;;19.55;4.72;;;12.40;85.50;;;;;;5011499;28;20104;-80
2023/01/01 09:11:30;;;;;;;19.17;4.90;;;12.40;85.40;;;;;;5003336;28;20386;-76
2023/01/01 09:13:56;;;;;;;15.27;5.63;;;12.40;85.30;;;;;;4998444;28;20152;-80
2023/01/01 09:16:22;;;;;;;16.17;5.50;;;12.40;85.40;;;;;;4997675;28;20491;-77
2023/01/01 09:18:48;;;;;;;16.80;6.07;;;12.40;85.50;;;;;;5008764;28;20104;-83
2023/01/01 09:21:14;;;;;;;17.98;5.68;;;12.40;85.50;;;;;;5012397;28;20034;-77
2023/01/01 09:23:40;;;;;;;15.60;4.70;;;12.40;85.40;;;;;;5010236;28;20023;-78
2023/01/01 09:26:08;;;;;;;20.20;11.02;;;12.40;85.50;;;;;;5010553;28;20152;-79
2023/01/01 09:28:34;;;;;;;19.80;9.43;;;12.30;85.60;;;;;;5020677;28;20282;-78
2023/01/01 09:31:00;;;;;;;18.42;9.23;;;12.40;85.50;;;;;;5010317;28;20045;-78
2023/01/01 09:33:26;;;;;;;21.95;10.73;;;12.30;85.40;;;;;;5021694;28;20140;-80
2023/01/01 09:35:53;;;;;;;17.20;7.90;;;12.30;85.40;;;;;;5020456;28;20108;-78
2023/01/01 09:38:19;;;;;;;21.33;7.60;;;12.40;85.40;;;;;;5020905;28;20764;-83
2023/01/01 09:41:03;;;;;;;14.63;4.93;;;12.40;85.30;;;;;;5013938;28;20026;-78
2023/01/01 09:44:00;;;;;;;14.93;4.22;;;12.40;85.20;;;;;;5013301;28;20033;-78
2023/01/01 09:46:26;;;;;;;12.98;3.75;;;12.50;85.10;;;;;;5003543;28;20045;-76
2023/01/01 09:48:56;;;;;;;17.20;4.50;;;12.50;84.80;;;;;;5015205;28;20096;-84
2023/01/01 09:51:25;;;;;;;13.60;4.45;;;12.60;84.60;;;;;;5006655;28;20450;-76
2023/01/01 09:54:01;;;;;;;15.55;3.92;;;12.60;84.50;;;;;;4997472;28;20026;-79
2023/01/01 09:56:29;;;;;;;15.88;4.28;;;12.60;84.50;;;;;;5002468;28;20042;-80
2023/01/01 09:58:57;;;;;;;19.17;4.68;;;12.60;84.30;;;;;;5006333;28;20025;-78
2023/01/01 10:01:36;;;;;;;16.08;4.10;;;12.60;84.30;;;;;;4998549;28;20032;-76
2023/01/01 10:04:20;;;;;;;16.38;3.95;;;12.60;84.40;;;;;;5003194;28;20018;-79
2023/01/01 10:07:08;;;;;;;15.95;3.92;;;12.60;84.20;;;;;;4995820;28;20026;-79
2023/01/01 10:09:45;;;;;;;15.45;4.88;;;12.60;84.30;;;;;;4999175;28;20023;-77
2023/01/01 10:12:16;;;;;;;12.55;3.78;;;12.60;84.20;;;;;;5002907;28;20526;-77
2023/01/01 10:14:45;;;;;;;17.20;3.72;;;12.70;84.20;;;;;;4999852;28;20398;-78
2023/01/01 10:17:42;;;;;;;18.92;4.20;;;12.80;84.00;;;;;;5006614;28;20088;-78
2023/01/01 10:20:50;;;;;;;14.25;4.18;;;12.80;83.90;;;;;;5002969;28;20042;-76
2023/01/01 10:23:28;;;;;;;13.60;3.55;;;12.90;83.70;;;;;;5009425;28;20030;-77
2023/01/01 10:25:56;;;;;;;14.07;3.92;;;13.00;83.40;;;;;;5010695;28;20478;-79
2023/01/01 10:28:48;;;;;;;11.07;4.00;;;13.10;83.20;;;;;;5018309;28;20024;-77
2023/01/01 10:31:25;;;;;;;17.63;4.50;;;13.10;83.00;;;;;;5009402;28;20040;-74
2023/01/01 10:33:51;;;;;;;16.48;4.07;;;13.10;82.80;;;;;;5008076;28;20033;-75
2023/01/01 10:36:19;;;;;;;17.52;4.80;;;13.20;82.50;;;;;;5006125;28;20044;-75
2023/01/01 10:38:49;;;;;;;15.18;4.03;;;13.10;82.30;;;;;;5006716;28;20033;-79
2023/01/01 10:41:16;;;;;;;20.67;4.78;;;13.20;82.40;;;;;;5005151;28;20418;-80
2023/01/01 10:43:43;;;;;;;16.90;4.00;;;13.10;82.30;;;;;;5002586;28;20113;-74
2023/01/01 10:46:14;;;;;;;15.68;4.47;;;13.10;82.30;;;;;;5006100;28;20049;-80
2023/01/01 10:49:00;;;;;;;13.95;4.25;;;13.10;82.20;;;;;;5001762;28;20065;-82
2023/01/01 10:51:25;;;;;;;10.77;3.38;;;13.20;81.90;;;;;;4993811;28;20033;-80
2023/01/01 10:57:29;;;;;;;18.88;4.13;;;13.30;81.90;;;;;;4973879;28;20582;-77
2023/01/01 11:00:19;;;;;;;17.98;4.78;;;13.30;81.70;;;;;;4994749;28;20114;-79
2023/01/01 11:02:45;;;;;;;16.20;5.63;;;13.40;81.40;;;;;;4995283;28;20402;-81
2023/01/01 11:05:20;;;;;;;17.13;5.45;;;13.40;81.40;;;;;;5000967;28;20057;-79
2023/01/01 11:07:47;;;;;;;19.73;6.97;;;13.50;81.20;;;;;;4999173;28;20038;-80
2023/01/01 11:10:18;;;;;;;21.70;7.65;;;13.40;81.00;;;;;;4996270;28;20030;-76
2023/01/01 11:12:44;;;;;;;18.95;6.75;;;13.60;80.80;;;;;;4997692;28;20030;-76
2023/01/01 11:15:23;;;;;;;19.67;7.30;;;13.60;80.40;;;;;;4994298;28;20073;-79
2023/01/01 11:17:49;;;;;;;18.58;6.72;;;13.60;80.30;;;;;;4991860;28;20046;-76
2023/01/01 11:20:20;;;;;;;16.55;6.55;;;13.70;80.20;;;;;;4999447;28;20026;-77
2023/01/01 11:22:51;;;;;;;14.75;4.43;;;13.70;80.10;;;;;;5006185;28;20482;-77
2023/01/01 11:25:26;;;;;;;12.77;3.83;;;13.80;79.90;;;;;;4995017;28;20034;-76
2023/01/01 11:28:12;;;;;;;14.55;3.92;;;13.80;79.90;;;;;;5000313;28;20428;-78
2023/01/01 11:30:38;;;;;;;15.57;5.90;;;13.80;79.50;;;;;;5002135;28;20049;-76
2023/01/01 11:33:04;;;;;;;14.73;4.72;;;13.80;79.50;;;;;;4998256;28;20099;-80
2023/01/01 11:35:47;;;;;;;14.93;5.03;;;13.80;79.60;;;;;;4997768;28;20029;-76
2023/01/01 11:38:18;;;;;;;14.32;4.28;;;13.80;79.40;;;;;;4997641;28;20022;-78
2023/01/01 11:40:47;;;;;;;14.95;4.05;;;13.90;79.40;;;;;;5002068;28;20744;-76
2023/01/01 11:43:20;;;;;;;14.27;3.75;;;13.90;79.20;;;;;;4999567;28;20029;-76
2023/01/01 11:45:47;;;;;;;14.40;3.85;;;13.90;79.30;;;;;;5000954;28;20141;-75
2023/01/01 11:48:20;;;;;;;14.25;4.25;;;13.90;79.20;;;;;;4995533;28;20113;-80
2023/01/01 11:50:57;;;;;;;15.70;4.57;;;13.90;79.00;;;;;;4995137;28;20478;-79
2023/01/01 11:53:25;;;;;;;15.57;3.80;;;13.90;79.40;;;;;;4995984;28;20529;-77
2023/01/01 11:56:02;;;;;;;13.25;3.80;;;14.00;79.20;;;;;;4999932;28;20414;-75
2023/01/01 11:58:46;;;;;;;13.40;4.03;;;13.90;79.60;;;;;;4996118;28;20062;-76
2023/01/01 12:01:22;;;;;;;15.13;3.78;;;13.90;79.60;;;;;;4991129;28;20079;-79
2023/01/01 12:03:56;;;;;;;16.88;4.15;;;13.80;79.50;;;;;;4985389;28;20029;-76
2023/01/01 12:06:32;;;;;;;17.13;4.50;;;13.70;80.00;;;;;;4993124;28;20034;-79
2023/01/01 12:09:07;;;;;;;17.48;5.65;;;13.70;80.40;;;;;;4990314;28;20030;-79
2023/01/01 12:11:48;;;;;;;14.82;4.75;;;13.70;80.50;;;;;;4994486;28;20556;-78
2023/01/01 12:14:38;;;;;;;12.90;4.15;;;13.70;80.20;;;;;;4987345;28;20050;-78
2023/01/01 12:17:26;;;;;;;13.63;4.35;;;13.60;80.40;;;;;;4993964;28;20471;-78
2023/01/01 12:20:00;;;;;;;18.63;5.07;;;13.60;80.50;;;;;;5000140;28;20037;-80
2023/01/01 12:22:26;;;;;;;19.15;4.63;;;13.70;80.50;;;;;;4995831;28;20092;-78
2023/01/01 12:24:53;;;;;;;17.15;3.58;;;13.60;80.60;;;;;;4999892;28;20084;-76
2023/01/01 12:27:44;;;;;;;17.13;4.57;;;13.60;80.80;;;;;;5004830;28;20112;-75
2023/01/01 12:30:28;;;;;;;13.43;3.63;;;13.60;80.90;;;;;;4995355;28;20049;-76
2023/01/01 12:33:16;;;;;;;14.13;5.55;;;13.60;80.80;;;;;;4994046;28;20546;-78
2023/01/01 12:36:17;;;;;;;14.35;3.63;;;13.60;80.80;;;;;;5002728;28;20031;-75
2023/01/01 12:39:20;;;;;;;16.40;4.35;;;13.60;80.80;;;;;;4996419;28;20029;-76
2023/01/01 12:42:03;;;;;;;17.35;4.32;;;13.60;81.10;;;;;;4999533;28;20549;-76
2023/01/01 12:44:47;;;;;;;16.13;4.43;;;13.60;80.80;;;;;;5003703;28;20581;-77
2023/01/01 12:47:47;;;;;;;17.92;4.85;;;13.60;80.70;;;;;;5003349;28;20095;-83
2023/01/01 12:50:28;;;;;;;17.02;4.55;;;13.70;80.60;;;;;;4999696;28;20084;-81
2023/01/01 12:53:27;;;;;;;16.30;4.50;;;13.80;80.20;;;;;;4998722;28;20108;-75
2023/01/01 12:56:13;;;;;;;14.73;3.92;;;13.90;80.00;;;;;;4998855;28;20030;-76
2023/01/01 12:58:44;;;;;;;13.93;4.15;;;13.90;79.80;;;;;;5002079;28;20513;-74
2023/01/01 13:01:23;;;;;;;15.30;4.15;;;13.90;79.20;;;;;;5005998;28;20474;-75
2023/01/01 13:04:18;;;;;;;12.85;3.63;;;14.00;78.90;;;;;;5011525;28;20030;-75